Time;durP1;ratioP1;P1;durP2;ratioP2;P2;SDS_P1;SDS_P2;PMS_P1;PMS_P2;Temp;Humidity;BMP_temperature;BMP_pressure;BME280_temperature;BME280_humidity;BME280_pressure;Samples;Min_cycle;Max_cycle;Signal;HPM_P1;HPM_P2
2022/01/27 00:00:29;;;;;;;;;;;;;;;18.24;32.55;101456.84;5001590;28;2215;-63
2022/01/27 00:05:19;;;;;;;;;;;;;;;18.24;32.68;101467.84;5010101;28;782;-61
2022/01/27 00:08:03;;;;;;;;;;;;;;;18.23;32.48;101466.19;5015343;28;862;-59
2022/01/27 00:11:13;;;;;;;;;;;;;;;18.23;32.77;101477.19;5007772;28;754;-59
2022/01/27 00:13:19;;;;;;;;;;;;;;;18.40;32.38;101472.34;5008069;28;1436;-60
2022/01/27 00:15:48;;;;;;;;;;;;;;;18.44;32.36;101473.47;5005408;28;971;-60
2022/01/27 00:18:17;;;;;;;;;;;;;;;18.33;32.55;101477.28;5000192;28;1906;-63
2022/01/27 00:20:43;;;;;;;;;;;;;;;18.39;32.43;101478.13;5000291;28;844;-60
2022/01/27 00:23:09;;;;;;;;;;;;;;;18.22;32.82;101470.88;5002811;28;1227;-61
2022/01/27 00:25:34;;;;;;;;;;;;;;;18.26;32.51;101471.19;5000353;28;878;-61
2022/01/27 00:28:00;;;;;;;;;;;;;;;18.37;32.62;101475.63;4999796;28;826;-62
2022/01/27 00:30:25;;;;;;;;;;;;;;;18.23;32.42;101471.69;5001151;28;996;-60
2022/01/27 00:32:51;;;;;;;;;;;;;;;18.27;32.40;101467.31;5000548;28;814;-60
2022/01/27 00:35:16;;;;;;;;;;;;;;;18.27;32.52;101470.06;5005534;28;813;-59
2022/01/27 00:37:42;;;;;;;;;;;;;;;18.40;32.46;101466.00;5000076;28;866;-61
2022/01/27 00:40:11;;;;;;;;;;;;;;;18.35;32.49;101474.25;4999761;28;1988;-60
2022/01/27 00:42:36;;;;;;;;;;;;;;;18.28;32.36;101475.31;4999917;28;773;-60
2022/01/27 00:45:02;;;;;;;;;;;;;;;18.26;32.41;101471.19;4999330;28;909;-61
2022/01/27 00:47:28;;;;;;;;;;;;;;;18.34;32.58;101481.69;5000909;28;778;-62
2022/01/27 00:49:53;;;;;;;;;;;;;;;18.18;32.39;101463.44;5000956;28;880;-61
2022/01/27 00:52:28;;;;;;;;;;;;;;;18.18;32.52;101474.44;4999437;28;843;-61
2022/01/27 00:54:54;;;;;;;;;;;;;;;18.34;32.47;101473.44;5004225;28;1058;-62
2022/01/27 00:57:41;;;;;;;;;;;;;;;18.30;32.33;101459.34;4999404;28;846;-61
2022/01/27 01:00:07;;;;;;;;;;;;;;;18.38;32.36;101468.19;5005244;28;1981;-60
2022/01/27 01:05:28;;;;;;;;;;;;;;;18.27;32.59;101467.31;5018232;28;834;-61
2022/01/27 01:07:58;;;;;;;;;;;;;;;18.26;32.46;101468.44;5016848;28;846;-62
2022/01/27 01:15:51;;;;;;;;;;;;;;;18.31;32.30;101465.69;5008851;28;1403;-62
2022/01/27 01:31:53;;;;;;;;;;;;;;;18.15;32.52;101459.28;4998962;28;841;-63
2022/01/27 01:34:22;;;;;;;;;;;;;;;18.17;32.58;101451.56;4998768;28;1009;-60
2022/01/27 01:36:57;;;;;;;;;;;;;;;18.13;32.47;101448.53;4998087;28;833;-60
2022/01/27 01:39:24;;;;;;;;;;;;;;;18.11;32.65;101458.16;5003058;28;1914;-62
2022/01/27 01:41:49;;;;;;;;;;;;;;;18.13;32.46;101447.69;5000853;28;1357;-61
2022/01/27 01:44:14;;;;;;;;;;;;;;;18.20;32.40;101455.72;5004095;28;873;-61
2022/01/27 01:46:40;;;;;;;;;;;;;;;18.08;32.62;101445.75;4998855;28;858;-59
2022/01/27 01:49:05;;;;;;;;;;;;;;;17.94;32.78;101450.91;4998585;28;834;-61
2022/01/27 01:51:32;;;;;;;;;;;;;;;18.07;32.88;101446.84;5002260;28;817;-61
2022/01/27 01:53:57;;;;;;;;;;;;;;;18.04;32.65;101457.56;5002313;28;1149;-60
2022/01/27 01:56:23;;;;;;;;;;;;;;;18.02;32.72;101449.59;4999410;28;838;-61
2022/01/27 01:58:48;;;;;;;;;;;;;;;17.99;33.00;101457.53;5000222;28;1973;-61
2022/01/27 02:01:14;;;;;;;;;;;;;;;18.17;32.46;101445.25;4999986;28;782;-61
2022/01/27 02:03:39;;;;;;;;;;;;;;;18.76;31.74;101453.19;4998072;28;787;-60
2022/01/27 02:06:05;;;;;;;;;;;;;;;18.83;31.61;101457.59;5000023;28;977;-61
2022/01/27 02:08:47;;;;;;;;;;;;;;;18.30;32.10;101440.09;4998332;28;777;-61
2022/01/27 02:19:25;;;;;;;;;;;;;;;17.22;34.14;101441.28;4998592;28;1981;-63
2022/01/27 02:21:52;;;;;;;;;;;;;;;18.24;32.78;101440.31;4997817;28;806;-62
2022/01/27 02:24:18;;;;;;;;;;;;;;;18.13;32.72;101445.78;4997340;28;1280;-64
2022/01/27 02:26:43;;;;;;;;;;;;;;;17.52;33.79;101437.97;5033833;28;1514;-62
2022/01/27 02:29:09;;;;;;;;;;;;;;;17.26;34.23;101443.28;4997589;28;1261;-63
2022/01/27 02:31:35;;;;;;;;;;;;;;;17.00;34.45;101442.19;4998773;28;822;-62
2022/01/27 02:34:01;;;;;;;;;;;;;;;17.00;34.70;101444.94;5016012;28;1274;-62
2022/01/27 02:36:27;;;;;;;;;;;;;;;17.13;34.70;101448.38;5016522;28;837;-64
2022/01/27 02:38:52;;;;;;;;;;;;;;;17.25;34.09;101443.50;5016552;28;1910;-63
2022/01/27 02:41:18;;;;;;;;;;;;;;;17.42;33.76;101430.47;5016773;28;917;-63
2022/01/27 02:43:43;;;;;;;;;;;;;;;17.49;33.96;101432.16;5006788;28;1106;-61
2022/01/27 02:46:09;;;;;;;;;;;;;;;17.65;33.66;101447.66;5005831;28;1259;-63
2022/01/27 02:48:34;;;;;;;;;;;;;;;17.90;32.88;101440.69;5011103;28;1586;-62
2022/01/27 02:51:00;;;;;;;;;;;;;;;17.87;33.03;101432.97;5016584;28;830;-62
2022/01/27 02:53:25;;;;;;;;;;;;;;;17.62;33.49;101434.44;5016212;28;841;-62
2022/01/27 02:55:51;;;;;;;;;;;;;;;17.50;33.91;101442.91;5003354;28;1176;-62
2022/01/27 02:58:16;;;;;;;;;;;;;;;17.26;34.16;101437.78;4997107;28;1975;-62
2022/01/27 03:00:42;;;;;;;;;;;;;;;17.04;34.62;101445.25;4999793;28;991;-62
2022/01/27 03:03:07;;;;;;;;;;;;;;;16.93;34.80;101447.09;4997337;28;798;-62
2022/01/27 03:05:33;;;;;;;;;;;;;;;17.88;33.18;101448.34;4997066;28;882;-63
2022/01/27 03:07:58;;;;;;;;;;;;;;;17.51;33.63;101454.72;5001884;28;747;-62
2022/01/27 03:10:26;;;;;;;;;;;;;;;17.19;33.95;101464.63;4995988;28;1146;-60
2022/01/27 03:12:57;;;;;;;;;;;;;;;16.86;34.68;101469.22;4996914;28;847;-62
2022/01/27 03:15:22;;;;;;;;;;;;;;;17.33;34.22;101466.94;4998155;28;1019;-63
2022/01/27 03:17:48;;;;;;;;;;;;;;;17.72;33.29;101464.75;4997591;28;1024;-63
2022/01/27 03:20:13;;;;;;;;;;;;;;;17.45;33.86;101473.91;4997966;28;1915;-64
2022/01/27 03:22:39;;;;;;;;;;;;;;;18.05;32.81;101473.00;4997098;28;1252;-62
2022/01/27 03:25:04;;;;;;;;;;;;;;;18.05;32.76;101470.25;4997073;28;830;-61
2022/01/27 03:27:30;;;;;;;;;;;;;;;18.11;32.57;101492.00;4996459;28;838;-64
2022/01/27 03:29:55;;;;;;;;;;;;;;;18.00;32.66;101479.28;5002703;28;961;-61
2022/01/27 03:32:21;;;;;;;;;;;;;;;17.83;33.01;101481.34;4996558;28;870;-61
2022/01/27 03:34:46;;;;;;;;;;;;;;;18.11;32.58;101475.50;5000370;28;770;-61
2022/01/27 03:37:12;;;;;;;;;;;;;;;18.16;32.41;101482.13;4996888;28;774;-63
2022/01/27 03:39:39;;;;;;;;;;;;;;;18.30;32.33;101481.38;4997255;28;1906;-63
2022/01/27 03:42:05;;;;;;;;;;;;;;;18.28;32.33;101480.81;4996677;28;762;-63
2022/01/27 03:44:30;;;;;;;;;;;;;;;18.35;32.34;101479.75;5003327;28;885;-61
2022/01/27 03:46:55;;;;;;;;;;;;;;;18.34;32.12;101489.09;5001582;28;892;-62
2022/01/27 03:49:21;;;;;;;;;;;;;;;18.39;31.98;101489.13;5000397;28;972;-59
2022/01/27 03:51:46;;;;;;;;;;;;;;;18.48;31.85;101495.75;5000924;28;801;-62
2022/01/27 03:54:12;;;;;;;;;;;;;;;18.55;31.76;101506.53;5003062;28;1073;-62
2022/01/27 03:56:38;;;;;;;;;;;;;;;18.56;31.80;101503.50;5000197;28;898;-62
2022/01/27 03:59:03;;;;;;;;;;;;;;;18.53;31.82;101500.47;5004054;28;1910;-63
2022/01/27 04:01:30;;;;;;;;;;;;;;;18.63;31.63;101508.78;5000571;28;943;-61
2022/01/27 04:03:58;;;;;;;;;;;;;;;18.72;31.53;101518.19;4999948;28;810;-62
2022/01/27 04:06:32;;;;;;;;;;;;;;;18.64;31.63;101519.53;5000562;28;754;-63
2022/01/27 04:08:57;;;;;;;;;;;;;;;18.67;31.31;101520.91;5000280;28;905;-62
2022/01/27 04:11:23;;;;;;;;;;;;;;;18.69;31.37;101532.50;5000291;28;955;-64
2022/01/27 04:13:48;;;;;;;;;;;;;;;18.72;31.47;101529.22;5000333;28;869;-62
2022/01/27 04:16:14;;;;;;;;;;;;;;;18.74;31.41;101527.00;4999207;28;872;-63
2022/01/27 04:18:39;;;;;;;;;;;;;;;18.72;31.46;101534.72;4999966;28;1902;-62
2022/01/27 04:21:04;;;;;;;;;;;;;;;18.76;31.42;101533.09;5000248;28;830;-60
2022/01/27 04:23:30;;;;;;;;;;;;;;;18.80;31.40;101536.09;4999867;28;1112;-62
2022/01/27 04:25:55;;;;;;;;;;;;;;;18.80;31.42;101534.19;5003509;28;842;-63
2022/01/27 04:28:28;;;;;;;;;;;;;;;18.76;31.32;101535.84;5000210;28;809;-59
2022/01/27 04:30:56;;;;;;;;;;;;;;;18.82;31.17;101542.19;5005209;28;1047;-62
2022/01/27 04:33:28;;;;;;;;;;;;;;;18.73;31.47;101535.53;5000064;28;765;-63
2022/01/27 04:35:57;;;;;;;;;;;;;;;18.69;31.33;101545.44;5000192;28;790;-60
2022/01/27 04:38:27;;;;;;;;;;;;;;;18.57;31.65;101542.91;4999785;28;1897;-62
2022/01/27 04:41:11;;;;;;;;;;;;;;;18.58;31.77;101548.16;5001132;28;1052;-60
2022/01/27 04:46:16;;;;;;;;;;;;;;;18.44;31.99;101556.06;5002054;28;841;-63
2022/01/27 04:48:47;;;;;;;;;;;;;;;18.43;32.06;101554.41;4999552;28;758;-64
2022/01/27 04:51:16;;;;;;;;;;;;;;;18.39;32.09;101553.28;5002689;28;1002;-68
2022/01/27 04:56:17;;;;;;;;;;;;;;;18.35;32.30;101556.84;4999797;28;778;-61
2022/01/27 04:58:45;;;;;;;;;;;;;;;18.37;32.26;101561.00;5000958;28;1914;-64
2022/01/27 05:01:11;;;;;;;;;;;;;;;18.37;32.15;101557.38;5012441;28;837;-61
2022/01/27 05:03:48;;;;;;;;;;;;;;;18.31;32.33;101551.03;5004970;28;853;-61
2022/01/27 05:06:13;;;;;;;;;;;;;;;18.29;32.46;101547.72;5013003;28;774;-59
2022/01/27 05:08:39;;;;;;;;;;;;;;;18.31;32.25;101548.28;5018307;28;780;-59
2022/01/27 05:11:12;;;;;;;;;;;;;;;18.32;32.10;101555.44;5017517;28;779;-60
2022/01/27 05:13:42;;;;;;;;;;;;;;;18.20;32.58;101560.31;5017439;28;954;-62
2022/01/27 05:16:07;;;;;;;;;;;;;;;18.08;32.88;101561.34;5007160;28;826;-59
2022/01/27 05:18:33;;;;;;;;;;;;;;;18.13;32.40;101560.53;4998854;28;1959;-58
2022/01/27 05:20:58;;;;;;;;;;;;;;;18.08;32.60;101555.84;4999109;28;794;-59
2022/01/27 05:23:24;;;;;;;;;;;;;;;17.99;32.72;101564.84;4999002;28;1273;-58
2022/01/27 05:25:49;;;;;;;;;;;;;;;18.06;32.52;101555.28;4998307;28;812;-58
2022/01/27 05:28:15;;;;;;;;;;;;;;;18.09;32.87;101570.44;5005105;28;766;-60
2022/01/27 05:30:40;;;;;;;;;;;;;;;18.18;32.62;101565.28;5003335;28;1010;-60
2022/01/27 05:33:09;;;;;;;;;;;;;;;18.25;32.25;101574.94;4998601;28;798;-61
2022/01/27 05:35:34;;;;;;;;;;;;;;;18.23;32.52;101570.78;4998559;28;846;-61
2022/01/27 05:38:00;;;;;;;;;;;;;;;18.34;32.16;101571.69;4999084;28;845;-60
2022/01/27 05:40:25;;;;;;;;;;;;;;;18.26;32.34;101567.53;5000188;28;1989;-59
2022/01/27 05:42:50;;;;;;;;;;;;;;;18.34;32.38;101580.81;4998167;28;831;-60
2022/01/27 05:45:16;;;;;;;;;;;;;;;18.34;32.34;101578.06;5000825;28;968;-63
2022/01/27 05:47:41;;;;;;;;;;;;;;;18.42;32.22;101580.28;4998223;28;798;-64
2022/01/27 05:50:07;;;;;;;;;;;;;;;18.51;32.14;101582.53;4998755;28;951;-65
2022/01/27 05:52:33;;;;;;;;;;;;;;;18.37;32.16;101576.66;4998299;28;1001;-65
2022/01/27 05:54:58;;;;;;;;;;;;;;;18.54;32.16;101571.81;5004127;28;970;-66
2022/01/27 05:57:24;;;;;;;;;;;;;;;18.49;32.18;101576.47;4998585;28;962;-64
2022/01/27 05:59:50;;;;;;;;;;;;;;;18.50;31.96;101583.66;4998865;28;1894;-65
2022/01/27 06:02:16;;;;;;;;;;;;;;;18.57;32.24;101575.97;4997805;28;783;-65
2022/01/27 06:04:41;;;;;;;;;;;;;;;18.58;32.06;101588.63;4997918;28;912;-65
2022/01/27 06:07:07;;;;;;;;;;;;;;;18.58;32.26;101578.47;4999698;28;870;-67
2022/01/27 06:09:32;;;;;;;;;;;;;;;18.55;32.32;101580.91;5012556;28;1167;-64
2022/01/27 06:11:57;;;;;;;;;;;;;;;18.54;32.32;101587.53;5016740;28;845;-64
2022/01/27 06:14:23;;;;;;;;;;;;;;;18.69;31.86;101590.38;5015127;28;883;-63
2022/01/27 06:16:48;;;;;;;;;;;;;;;18.65;32.11;101594.75;4997072;28;786;-63
2022/01/27 06:19:14;;;;;;;;;;;;;;;18.69;32.06;101598.63;5003325;28;1906;-65
2022/01/27 06:21:40;;;;;;;;;;;;;;;18.57;32.16;101589.75;4997194;28;826;-64
2022/01/27 06:24:06;;;;;;;;;;;;;;;18.67;31.98;101584.28;4996941;28;965;-64
2022/01/27 06:26:31;;;;;;;;;;;;;;;18.68;32.14;101594.22;4997495;28;834;-63
2022/01/27 06:28:57;;;;;;;;;;;;;;;18.76;31.84;101582.69;5000521;28;894;-62
2022/01/27 06:31:22;;;;;;;;;;;;;;;18.68;31.96;101594.22;4998909;28;821;-65
2022/01/27 06:33:48;;;;;;;;;;;;;;;18.81;31.82;101593.69;4997591;28;923;-61
2022/01/27 06:36:13;;;;;;;;;;;;;;;18.73;31.94;101602.50;4997055;28;1071;-60
2022/01/27 06:38:39;;;;;;;;;;;;;;;18.69;32.00;101598.63;4997052;28;1898;-60
2022/01/27 06:41:04;;;;;;;;;;;;;;;18.68;32.09;101596.97;4997381;28;901;-65
2022/01/27 06:43:30;;;;;;;;;;;;;;;18.73;31.66;101607.16;4997204;28;771;-61
2022/01/27 06:45:55;;;;;;;;;;;;;;;18.75;32.07;101599.47;5004424;28;983;-61
2022/01/27 06:48:20;;;;;;;;;;;;;;;18.77;31.78;101600.84;4995417;28;895;-60
2022/01/27 06:50:51;;;;;;;;;;;;;;;18.73;31.95;101608.00;4996954;28;729;-62
2022/01/27 06:53:16;;;;;;;;;;;;;;;18.80;31.92;101603.09;4997181;28;835;-59
2022/01/27 06:55:41;;;;;;;;;;;;;;;18.91;31.73;101603.16;4996682;28;1129;-60
2022/01/27 06:58:07;;;;;;;;;;;;;;;18.86;31.75;101606.69;4998967;28;793;-60
2022/01/27 07:00:32;;;;;;;;;;;;;;;18.96;31.66;101603.19;5003940;28;1968;-60
2022/01/27 07:02:58;;;;;;;;;;;;;;;19.01;31.51;101605.13;5015534;28;758;-60
2022/01/27 07:05:23;;;;;;;;;;;;;;;19.01;31.55;101602.38;5015634;28;927;-58
2022/01/27 07:07:49;;;;;;;;;;;;;;;19.08;31.50;101611.19;5014832;28;1036;-60
2022/01/27 07:10:14;;;;;;;;;;;;;;;18.74;32.07;101606.06;5014565;28;1223;-59
2022/01/27 07:12:42;;;;;;;;;;;;;;;18.49;32.42;101606.78;5014722;28;1204;-59
2022/01/27 07:15:08;;;;;;;;;;;;;;;18.77;31.91;101609.09;5011582;28;1524;-59
2022/01/27 07:17:33;;;;;;;;;;;;;;;20.25;29.68;101606.13;5006369;28;749;-59
2022/01/27 07:19:59;;;;;;;;;;;;;;;19.25;31.00;101613.72;5018356;28;1910;-58
2022/01/27 07:22:24;;;;;;;;;;;;;;;19.35;30.98;101612.94;5016855;28;829;-61
2022/01/27 07:24:50;;;;;;;;;;;;;;;18.02;33.14;101611.97;5000364;28;1264;-60
2022/01/27 07:27:16;;;;;;;;;;;;;;;17.76;33.76;101619.13;5000530;28;1058;-59
2022/01/27 07:29:42;;;;;;;;;;;;;;;17.83;33.63;101616.97;5008020;28;814;-59
2022/01/27 07:32:08;;;;;;;;;;;;;;;18.61;32.31;101623.91;5000354;28;830;-59
2022/01/27 07:34:33;;;;;;;;;;;;;;;18.53;32.44;101624.41;4999519;28;1044;-59
2022/01/27 07:37:01;;;;;;;;;;;;;;;18.45;32.45;101621.06;5003514;28;924;-59
2022/01/27 07:39:27;;;;;;;;;;;;;;;18.16;33.00;101631.59;4999914;28;1902;-59
2022/01/27 07:41:52;;;;;;;;;;;;;;;17.79;33.41;101633.19;5016444;28;1263;-59
2022/01/27 07:44:22;;;;;;;;;;;;;;;17.35;34.30;101638.78;5014977;28;1299;-59
2022/01/27 07:46:47;;;;;;;;;;;;;;;17.27;34.59;101642.00;5018054;28;1231;-59
2022/01/27 07:49:13;;;;;;;;;;;;;;;17.64;34.01;101630.28;5012431;28;973;-59
2022/01/27 07:51:38;;;;;;;;;;;;;;;18.60;32.32;101636.03;5000365;28;786;-59
2022/01/27 07:54:04;;;;;;;;;;;;;;;18.15;32.93;101635.44;5003445;28;1474;-59
2022/01/27 07:56:29;;;;;;;;;;;;;;;17.74;33.54;101641.41;5018989;28;753;-59
2022/01/27 07:58:55;;;;;;;;;;;;;;;17.75;33.61;101640.31;5019043;28;1972;-59
2022/01/27 08:01:20;;;;;;;;;;;;;;;18.35;32.55;101637.50;5003202;28;801;-59
2022/01/27 08:03:46;;;;;;;;;;;;;;;18.83;31.84;101640.31;5000064;28;973;-59
2022/01/27 08:06:11;;;;;;;;;;;;;;;18.34;32.65;101637.78;4999817;28;1188;-59
2022/01/27 08:08:37;;;;;;;;;;;;;;;17.75;33.90;101642.22;5016994;28;874;-59
2022/01/27 08:11:02;;;;;;;;;;;;;;;18.05;33.24;101654.66;5018826;28;902;-59
2022/01/27 08:13:28;;;;;;;;;;;;;;;18.14;33.10;101639.28;5018502;28;869;-59
2022/01/27 08:15:54;;;;;;;;;;;;;;;17.81;33.59;101643.94;5001364;28;983;-59
2022/01/27 08:18:19;;;;;;;;;;;;;;;17.71;33.65;101641.91;4999744;28;1981;-58
2022/01/27 08:20:47;;;;;;;;;;;;;;;18.53;32.30;101643.69;4999639;28;829;-58
2022/01/27 08:23:14;;;;;;;;;;;;;;;18.47;32.36;101648.34;4999335;28;1091;-59
2022/01/27 08:25:39;;;;;;;;;;;;;;;17.95;33.07;101647.94;4999596;28;770;-59
2022/01/27 08:28:15;;;;;;;;;;;;;;;18.50;32.45;101658.00;5001339;28;1040;-60
2022/01/27 08:30:45;;;;;;;;;;;;;;;18.29;32.81;101649.59;5005741;28;817;-60
2022/01/27 08:33:16;;;;;;;;;;;;;;;18.06;33.01;101654.38;4999320;28;827;-60
2022/01/27 08:35:42;;;;;;;;;;;;;;;17.73;33.57;101653.47;4998520;28;771;-60
2022/01/27 08:38:07;;;;;;;;;;;;;;;17.35;34.33;101662.69;5015287;28;818;-60
2022/01/27 08:40:33;;;;;;;;;;;;;;;17.20;34.54;101658.69;5006811;28;1981;-60
2022/01/27 08:42:59;;;;;;;;;;;;;;;17.55;33.89;101662.09;4999247;28;874;-60
2022/01/27 08:45:25;;;;;;;;;;;;;;;18.32;32.48;101646.31;5003402;28;818;-60
2022/01/27 08:47:51;;;;;;;;;;;;;;;17.97;33.30;101655.94;4998711;28;858;-60
2022/01/27 08:50:18;;;;;;;;;;;;;;;17.59;33.94;101661.31;4998995;28;751;-60
2022/01/27 08:52:44;;;;;;;;;;;;;;;17.70;33.48;101656.75;5000790;28;786;-60
2022/01/27 08:55:10;;;;;;;;;;;;;;;18.44;32.45;101652.47;5001678;28;1033;-60
2022/01/27 08:57:35;;;;;;;;;;;;;;;18.10;32.88;101652.75;4998405;28;846;-61
2022/01/27 09:00:02;;;;;;;;;;;;;;;17.69;33.58;101654.28;5002998;28;1977;-61
2022/01/27 09:02:28;;;;;;;;;;;;;;;17.96;32.59;101657.03;4998625;28;798;-61
2022/01/27 09:04:53;;;;;;;;;;;;;;;17.95;31.67;101653.44;5002989;28;845;-62
2022/01/27 09:07:19;;;;;;;;;;;;;;;17.22;31.76;101662.00;4998547;28;718;-62
2022/01/27 09:09:45;;;;;;;;;;;;;;;16.99;31.64;101659.50;4998397;28;920;-62
2022/01/27 09:12:11;;;;;;;;;;;;;;;17.79;29.78;101655.22;4997711;28;1326;-60
2022/01/27 09:14:38;;;;;;;;;;;;;;;18.34;28.81;101659.81;4999157;28;1054;-62
2022/01/27 09:17:04;;;;;;;;;;;;;;;17.64;29.20;101656.97;4999972;28;963;-62
2022/01/27 09:19:31;;;;;;;;;;;;;;;17.20;29.53;101663.34;4998735;28;1985;-62
2022/01/27 09:21:56;;;;;;;;;;;;;;;17.72;28.59;101660.06;4998335;28;890;-62
2022/01/27 09:24:28;;;;;;;;;;;;;;;17.58;28.31;101653.31;4998261;28;1198;-62
2022/01/27 09:26:59;;;;;;;;;;;;;;;17.15;28.90;101655.03;4998566;28;842;-62
2022/01/27 09:29:25;;;;;;;;;;;;;;;16.92;29.07;101656.94;5002942;28;1359;-61
2022/01/27 09:31:50;;;;;;;;;;;;;;;17.41;28.72;101653.41;5010193;28;1281;-62
2022/01/27 09:34:16;;;;;;;;;;;;;;;17.85;28.33;101641.47;4998507;28;767;-61
2022/01/27 09:36:41;;;;;;;;;;;;;;;18.30;27.58;101643.00;4999179;28;1125;-60
2022/01/27 09:39:07;;;;;;;;;;;;;;;18.46;27.71;101628.22;5010575;28;1981;-61
2022/01/27 09:41:33;;;;;;;;;;;;;;;18.42;27.73;101627.09;5010239;28;980;-61
2022/01/27 09:44:01;;;;;;;;;;;;;;;17.99;28.85;101636.41;5002252;28;826;-61
2022/01/27 09:46:27;;;;;;;;;;;;;;;17.61;29.16;101620.66;4998658;28;848;-61
2022/01/27 09:48:52;;;;;;;;;;;;;;;17.61;29.43;101619.78;5015751;28;1094;-61
2022/01/27 09:53:47;;;;;;;;;;;;;;;18.53;28.34;101607.91;5016726;28;1057;-61
2022/01/27 09:56:14;;;;;;;;;;;;;;;18.00;29.44;101611.38;5002906;28;845;-62
2022/01/27 09:58:39;;;;;;;;;;;;;;;18.57;28.59;101598.00;4998781;28;1935;-61
2022/01/27 10:01:04;;;;;;;;;;;;;;;18.20;29.23;101599.72;4998753;28;797;-61
2022/01/27 10:03:31;;;;;;;;;;;;;;;18.00;29.70;101597.63;4997705;28;858;-62
2022/01/27 10:06:10;;;;;;;;;;;;;;;17.68;30.29;101595.66;4997523;28;850;-61
2022/01/27 10:08:40;;;;;;;;;;;;;;;17.39;30.83;101595.94;4997660;28;882;-62
2022/01/27 10:11:12;;;;;;;;;;;;;;;17.27;31.00;101589.75;5010575;28;901;-62
2022/01/27 10:13:40;;;;;;;;;;;;;;;17.24;31.26;101582.03;5016240;28;1212;-62
2022/01/27 10:16:09;;;;;;;;;;;;;;;17.94;30.24;101585.75;5005574;28;1346;-61
2022/01/27 10:18:43;;;;;;;;;;;;;;;18.19;29.97;101577.94;4996775;28;1983;-61
2022/01/27 10:21:12;;;;;;;;;;;;;;;18.08;30.37;101574.28;5001390;28;747;-61
2022/01/27 10:23:39;;;;;;;;;;;;;;;18.02;30.19;101573.44;4997046;28;1135;-61
2022/01/27 10:26:13;;;;;;;;;;;;;;;17.65;30.05;101576.13;4997633;28;841;-62
2022/01/27 10:31:19;;;;;;;;;;;;;;;18.39;28.72;101569.81;5004116;28;930;-62
2022/01/27 10:33:49;;;;;;;;;;;;;;;18.89;27.73;101566.78;5012089;28;782;-62
2022/01/27 10:36:25;;;;;;;;;;;;;;;19.12;27.58;101569.03;4997567;28;800;-61
2022/01/27 10:38:56;;;;;;;;;;;;;;;18.98;28.41;101566.00;4997463;28;1902;-59
2022/01/27 10:41:22;;;;;;;;;;;;;;;18.51;29.37;101563.25;5016339;28;934;-60
2022/01/27 10:43:48;;;;;;;;;;;;;;;18.07;29.89;101562.44;5015586;28;900;-60
2022/01/27 10:48:49;;;;;;;;;;;;;;;16.11;31.80;101561.31;4996789;28;971;-61
2022/01/27 10:51:20;;;;;;;;;;;;;;;18.45;28.50;101551.38;5009299;28;882;-60
2022/01/27 10:54:43;;;;;;;;;;;;;;;19.65;26.59;101554.22;4998060;28;1013;-60
2022/01/27 10:56:47;;;;;;;;;;;;;;;18.43;28.00;101545.31;4992806;28;1356;-60
2022/01/27 10:59:13;;;;;;;;;;;;;;;18.11;28.18;101549.81;4997546;28;1914;-59
2022/01/27 11:01:39;;;;;;;;;;;;;;;16.98;29.12;101540.53;4998626;28;923;-59
2022/01/27 11:04:06;;;;;;;;;;;;;;;17.69;27.98;101539.56;5013011;28;1132;-60
2022/01/27 11:06:33;;;;;;;;;;;;;;;18.35;26.17;101518.28;5014200;28;1191;-60
2022/01/27 11:09:01;;;;;;;;;;;;;;;18.79;25.88;101540.81;5015552;28;1485;-61
2022/01/27 11:11:27;;;;;;;;;;;;;;;18.68;25.65;101519.81;5015360;28;1251;-62
2022/01/27 11:13:53;;;;;;;;;;;;;;;18.36;26.38;101523.53;5002323;28;790;-63
2022/01/27 11:16:22;;;;;;;;;;;;;;;18.40;26.75;101515.59;5008593;28;963;-62
2022/01/27 11:18:48;;;;;;;;;;;;;;;18.10;26.92;101522.56;5015249;28;2024;-62
2022/01/27 11:21:33;;;;;;;;;;;;;;;18.01;26.90;101519.47;5015444;28;809;-63
2022/01/27 11:24:04;;;;;;;;;;;;;;;18.05;26.86;101512.34;5015429;28;983;-63
2022/01/27 11:26:29;;;;;;;;;;;;;;;18.04;26.16;101524.44;5007745;28;1406;-63
2022/01/27 11:28:55;;;;;;;;;;;;;;;17.83;26.06;101506.13;5014239;28;825;-61
2022/01/27 11:31:56;;;;;;;;;;;;;;;19.40;23.36;101497.94;5006807;28;1503;-61
2022/01/27 11:34:21;;;;;;;;;;;;;;;20.33;22.20;101495.09;4993899;28;1418;-62
2022/01/27 11:37:03;;;;;;;;;;;;;;;19.49;23.35;101499.06;4996143;28;1437;-62
2022/01/27 11:39:47;;;;;;;;;;;;;;;18.82;24.01;101492.59;5014508;28;1905;-62
2022/01/27 11:42:12;;;;;;;;;;;;;;;18.53;24.27;101481.22;5015250;28;986;-62
2022/01/27 11:44:39;;;;;;;;;;;;;;;18.12;25.08;101482.66;5008562;28;1247;-62
2022/01/27 11:47:18;;;;;;;;;;;;;;;18.66;24.16;101479.88;4998377;28;1093;-62
2022/01/27 11:50:07;;;;;;;;;;;;;;;18.68;24.36;101473.00;5014665;28;1202;-62
2022/01/27 11:52:33;;;;;;;;;;;;;;;18.45;24.47;101469.63;4996144;28;826;-63
2022/01/27 11:55:19;;;;;;;;;;;;;;;18.08;24.78;101467.78;4996696;28;1065;-61
2022/01/27 11:57:45;;;;;;;;;;;;;;;17.62;25.43;101464.72;4989518;28;1775;-62
2022/01/27 12:00:18;;;;;;;;;;;;;;;17.62;26.69;101464.72;5008657;28;1910;-61
2022/01/27 12:03:10;;;;;;;;;;;;;;;18.20;27.00;101455.72;5015160;28;785;-64
2022/01/27 12:05:36;;;;;;;;;;;;;;;18.52;27.22;101457.50;4997725;28;1685;-63
2022/01/27 12:08:17;;;;;;;;;;;;;;;18.65;27.75;101446.00;5000367;28;795;-63
2022/01/27 12:10:49;;;;;;;;;;;;;;;18.18;28.55;101456.00;5000187;28;811;-62
2022/01/27 12:13:33;;;;;;;;;;;;;;;17.24;28.82;101445.44;5000218;28;1381;-61
2022/01/27 12:16:57;;;;;;;;;;;;;;;16.95;28.76;101442.13;5006302;28;751;-62
2022/01/27 12:19:08;;;;;;;;;;;;;;;17.06;29.11;101430.16;4994440;28;1902;-60
2022/01/27 12:21:38;;;;;;;;;;;;;;;17.57;29.03;101431.66;4999688;28;846;-60
2022/01/27 12:26:59;;;;;;;;;;;;;;;18.05;30.65;101438.03;5006999;28;1113;-60
2022/01/27 12:29:28;;;;;;;;;;;;;;;18.06;31.40;101434.19;5005222;28;757;-60
2022/01/27 12:31:54;;;;;;;;;;;;;;;18.05;31.83;101426.22;5015941;28;763;-60
2022/01/27 12:34:20;;;;;;;;;;;;;;;18.23;32.02;101433.16;5018391;28;857;-60
2022/01/27 12:36:55;;;;;;;;;;;;;;;18.26;32.38;101438.97;5018431;28;838;-60
2022/01/27 12:39:21;;;;;;;;;;;;;;;17.77;33.60;101420.81;5018410;28;1906;-59
2022/01/27 12:41:48;;;;;;;;;;;;;;;16.82;35.86;101426.88;5014019;28;782;-61
2022/01/27 12:44:14;;;;;;;;;;;;;;;16.73;36.94;101421.03;5000286;28;861;-59
2022/01/27 12:46:39;;;;;;;;;;;;;;;16.73;37.30;101423.78;4999658;28;833;-59
2022/01/27 12:49:05;;;;;;;;;;;;;;;16.74;37.70;101417.19;4999229;28;1460;-59
2022/01/27 12:51:46;;;;;;;;;;;;;;;16.61;38.94;101414.84;4999431;28;849;-58
2022/01/27 12:54:14;;;;;;;;;;;;;;;16.65;39.41;101423.38;5007053;28;991;-58
2022/01/27 12:56:39;;;;;;;;;;;;;;;16.89;39.01;101412.97;5000301;28;794;-58
2022/01/27 12:59:12;;;;;;;;;;;;;;;17.17;38.89;101419.28;5001530;28;1902;-59
2022/01/27 13:01:37;;;;;;;;;;;;;;;17.37;38.40;101416.66;4999776;28;838;-63
2022/01/27 13:04:03;;;;;;;;;;;;;;;17.63;37.70;101425.13;4997877;28;863;-62
2022/01/27 13:06:29;;;;;;;;;;;;;;;17.74;37.43;101415.84;5014631;28;974;-63
2022/01/27 13:09:11;;;;;;;;;;;;;;;17.75;36.96;101420.25;5017019;28;1046;-61
2022/01/27 13:11:39;;;;;;;;;;;;;;;17.96;36.42;101417.63;5016946;28;1310;-62
2022/01/27 13:14:05;;;;;;;;;;;;;;;17.91;36.37;101417.63;5016519;28;1164;-63
2022/01/27 13:16:38;;;;;;;;;;;;;;;18.08;36.06;101423.75;5000535;28;1239;-62
2022/01/27 13:19:09;;;;;;;;;;;;;;;18.07;35.75;101432.28;5016139;28;1986;-63
2022/01/27 13:21:37;;;;;;;;;;;;;;;18.18;35.61;101416.63;5015133;28;1141;-63
2022/01/27 13:24:08;;;;;;;;;;;;;;;18.22;35.48;101423.25;5017444;28;978;-61
2022/01/27 13:26:33;;;;;;;;;;;;;;;18.33;35.24;101422.22;5003822;28;834;-63
2022/01/27 13:28:59;;;;;;;;;;;;;;;18.36;35.05;101412.59;5001173;28;873;-62
2022/01/27 13:31:25;;;;;;;;;;;;;;;18.15;35.47;101419.94;4998733;28;1052;-63
2022/01/27 13:33:50;;;;;;;;;;;;;;;18.26;35.06;101424.38;5003996;28;877;-64
2022/01/27 13:36:16;;;;;;;;;;;;;;;18.45;34.83;101419.19;5005889;28;1098;-63
2022/01/27 13:38:59;;;;;;;;;;;;;;;18.39;34.73;101410.09;5017198;28;1906;-65
2022/01/27 13:41:25;;;;;;;;;;;;;;;18.35;34.76;101422.75;5016223;28;1299;-65
2022/01/27 13:43:50;;;;;;;;;;;;;;;18.41;34.79;101424.44;5015247;28;1167;-61